Terminal Aerodrome Forecast
Issued by NWS

Home | Current Version | Previous Version | Text Only | Print | Product List | Glossary On
Versions: 1 2 3 4 5 6 7 8 9 10 11 12 13 14 15 16 17 18 19 20 21 22 23 24 25
000
FTUS43 KDVN 261850 AAA
TAFCID
TAF AMD
KCID 261850Z 2619/2718 27014KT P6SM OVC010
     FM262000 29013G19KT P6SM OVC011
     FM262300 31012KT P6SM OVC015
      TEMPO 2702/2705 -RA
     FM270500 32011KT P6SM OVC015
     FM270800 30012KT P6SM OVC008
     FM271500 29014KT P6SM BKN025=

USA.gov is the U.S. government's official web portal to all federal, state and local government web resources and services.